This is the latest recevied weather packets stored in our database for station/object KK4WXG. If no packets are shown the sender has not sent any weather packets the latest 10 day(s).
| Time | Temp. | Humidity | Pressure | Rain* | Wind** | Luminosity | Snow |
|---|---|---|---|---|---|---|---|
| 1777840651 | 17.22° C | 29% | 1013.6 hPa | 0 mm | - | 598 W/m² | - |
| 1777840348 | 17.78° C | 29% | 1013.5 hPa | 0 mm | - | 616 W/m² | - |
| 1777840045 | 17.22° C | 28% | 1013.5 hPa | 0 mm | - | 633 W/m² | - |
| 1777839743 | 16.67° C | 34% | 1013.5 hPa | 0 mm | - | 650 W/m² | - |
| 1777839440 | 16.67° C | 32% | 1013.5 hPa | 0 mm | - | 667 W/m² | - |
| 1777839138 | 16.67° C | 29% | 1013.7 hPa | 0 mm | - | 682 W/m² | - |
| 1777838834 | 16.67° C | 29% | 1013.9 hPa | 0 mm | - | 701 W/m² | - |
| 1777838530 | 17.22° C | 32% | 1014 hPa | 0 mm | - | 718 W/m² | - |
| 1777838227 | 16.67° C | 29% | 1013.9 hPa | 0 mm | - | 731 W/m² | - |
| 1777837924 | 17.22° C | 31% | 1014 hPa | 0 mm | - | 748 W/m² | - |
| 1777837621 | 17.22° C | 30% | 1014.1 hPa | 0 mm | - | 811 W/m² | - |
| 1777837316 | 17.22° C | 32% | 1014.1 hPa | 0 mm | - | 793 W/m² | - |
| 1777837014 | 17.22° C | 35% | 1014.3 hPa | 0 mm | - | 812 W/m² | - |
| 1777836709 | 16.67° C | 33% | 1014.4 hPa | 0 mm | - | 836 W/m² | - |
| 1777836405 | 16.11° C | 35% | 1014.4 hPa | 0 mm | - | 897 W/m² | - |
| 1777836101 | 16.11° C | 32% | 1014.6 hPa | 0 mm | - | 884 W/m² | - |
| 1777835798 | 15.56° C | 32% | 1014.5 hPa | 0 mm | - | 897 W/m² | - |
| 1777835495 | 15.56° C | 31% | 1014.8 hPa | 0 mm | - | 874 W/m² | - |
| 1777835192 | 16.11° C | 34% | 1014.7 hPa | 0 mm | - | 874 W/m² | - |
| 1777834889 | 16.11° C | 33% | 1014.9 hPa | 0 mm | - | 875 W/m² | - |
| 1777834585 | 16.11° C | 30% | 1014.9 hPa | 0 mm | - | 903 W/m² | - |
| 1777834280 | 16.11° C | 35% | 1015 hPa | 0 mm | - | 928 W/m² | - |
| 1777833976 | 15.56° C | 35% | 1015 hPa | 0 mm | - | 954 W/m² | - |
| 1777833673 | 16.11° C | 32% | 1014.9 hPa | 0 mm | - | 429 W/m² | - |
| 1777833369 | 15° C | 37% | 1015.1 hPa | 0 mm | - | 932 W/m² | - |
* Rain latest hour (hover to see other rain measurements)
** Current wind speed in m/s (hover to see current wind gust speed)